<?xml version="1.0" encoding="UTF-8" standalone="no" ?><gpx xmlns="http://www.topografix.com/GPX/1/1" xmlns:gpxx="http://www.garmin.com/xmlschemas/GpxExtensions/v3" xmlns:wptx1="http://www.garmin.com/xmlschemas/WaypointExtension/v1" xmlns:gpxtpx="http://www.garmin.com/xmlschemas/TrackPointExtension/v1" creator="GuideVTT.com" version="1.1" xmlns:xsi="http://www.w3.org/2001/XMLSchema-instance" xsi:schemaLocation="http://www.topografix.com/GPX/1/1 http://www.topografix.com/GPX/1/1/gpx.xsd http://www.garmin.com/xmlschemas/GpxExtensions/v3 http://www8.garmin.com/xmlschemas/GpxExtensionsv3.xsd http://www.garmin.com/xmlschemas/WaypointExtension/v1 http://www8.garmin.com/xmlschemas/WaypointExtensionv1.xsd http://www.garmin.com/xmlschemas/TrackPointExtension/v1 http://www.garmin.com/xmlschemas/TrackPointExtensionv1.xsd">
<metadata><link href="http://www.garmin.com"><text>Garmin International</text></link><time>2013-06-22T15:13:50Z</time></metadata>
<trk><name>55km.gpx</name><extensions><gpxx:TrackExtension><gpxx:DisplayColor>Cyan</gpxx:DisplayColor></gpxx:TrackExtension></extensions><trkseg>
<trkpt lat="19700101" lon="000000"><ele></ele><time>2014-6-14T18:50:58Z</time></trkpt>
<trkpt lat="19700101" lon="000000"><ele></ele><time>2014-6-14T18:51:1Z</time></trkpt>
<trkpt lat="19700101" lon="000000"><ele></ele><time>2014-6-14T18:51:4Z</time></trkpt>
<trkpt lat="19700101" lon="000000"><ele></ele><time>2014-6-14T18:51:7Z</time></trkpt>
<trkpt lat="19700101" lon="000000"><ele></ele><time>2014-6-14T18:51:10Z</time></trkpt>
<trkpt lat="19700101" lon="000000"><ele></ele><time>2014-6-14T18:51:13Z</time></trkpt>
<trkpt lat="19700101" lon="000000"><ele></ele><time>2014-6-14T18:51:16Z</time></trkpt>
<trkpt lat="19700101" lon="000000"><ele></ele><time>2014-6-14T18:51:19Z</time></trkpt>
<trkpt lat="19700101" lon="000000"><ele></ele><time>2014-6-14T18:51:22Z</time></trkpt>
<trkpt lat="19700101" lon="000000"><ele></ele><time>2014-6-14T18:51:25Z</time></trkpt>
<trkpt lat="19700101" lon="000000"><ele></ele><time>2014-6-14T18:51:28Z</time></trkpt>
<trkpt lat="19700101" lon="000000"><ele></ele><time>2014-6-14T18:51:31Z</time></trkpt>
<trkpt lat="19700101" lon="000000"><ele></ele><time>2014-6-14T18:51:34Z</time></trkpt>
<trkpt lat="19700101" lon="000000"><ele></ele><time>2014-6-14T18:51:37Z</time></trkpt>
<trkpt lat="19700101" lon="000000"><ele></ele><time>2014-6-14T18:51:40Z</time></trkpt>
<trkpt lat="19700101" lon="000000"><ele></ele><time>2014-6-14T18:51:43Z</time></trkpt>
<trkpt lat="19700101" lon="000000"><ele></ele><time>2014-6-14T18:51:46Z</time></trkpt>
<trkpt lat="19700101" lon="000000"><ele></ele><time>2014-6-14T18:51:49Z</time></trkpt>
<trkpt lat="19700101" lon="000000"><ele></ele><time>2014-6-14T18:51:52Z</time></trkpt>
<trkpt lat="19700101" lon="000000"><ele></ele><time>2014-6-14T18:51:55Z</time></trkpt>
<trkpt lat="19700101" lon="000000"><ele></ele><time>2014-6-14T18:51:58Z</time></trkpt>
<trkpt lat="19700101" lon="000000"><ele></ele><time>2014-6-14T18:52:1Z</time></trkpt>
<trkpt lat="19700101" lon="000000"><ele></ele><time>2014-6-14T18:52:4Z</time></trkpt>
<trkpt lat="19700101" lon="000000"><ele></ele><time>2014-6-14T18:52:7Z</time></trkpt>
<trkpt lat="19700101" lon="000000"><ele></ele><time>2014-6-14T18:52:10Z</time></trkpt>
<trkpt lat="19700101" lon="000000"><ele></ele><time>2014-6-14T18:52:13Z</time></trkpt>
<trkpt lat="19700101" lon="000000"><ele></ele><time>2014-6-14T18:52:16Z</time></trkpt>
<trkpt lat="19700101" lon="000000"><ele></ele><time>2014-6-14T18:52:19Z</time></trkpt>
<trkpt lat="19700101" lon="000000"><ele></ele><time>2014-6-14T18:52:22Z</time></trkpt>
<trkpt lat="19700101" lon="000000"><ele></ele><time>2014-6-14T18:52:25Z</time></trkpt>
<trkpt lat="19700101" lon="000000"><ele></ele><time>2014-6-14T18:52:28Z</time></trkpt>
<trkpt lat="19700101" lon="000000"><ele></ele><time>2014-6-14T18:52:31Z</time></trkpt>
<trkpt lat="19700101" lon="000000"><ele></ele><time>2014-6-14T18:52:34Z</time></trkpt>
<trkpt lat="19700101" lon="000000"><ele></ele><time>2014-6-14T18:52:37Z</time></trkpt>
<trkpt lat="19700101" lon="000000"><ele></ele><time>2014-6-14T18:52:40Z</time></trkpt>
<trkpt lat="19700101" lon="000000"><ele></ele><time>2014-6-14T18:52:43Z</time></trkpt>
<trkpt lat="19700101" lon="000000"><ele></ele><time>2014-6-14T18:52:46Z</time></trkpt>
<trkpt lat="19700101" lon="000000"><ele></ele><time>2014-6-14T18:52:49Z</time></trkpt>
<trkpt lat="19700101" lon="000000"><ele></ele><time>2014-6-14T18:52:52Z</time></trkpt>
<trkpt lat="19700101" lon="000000"><ele></ele><time>2014-6-14T18:52:55Z</time></trkpt>
<trkpt lat="19700101" lon="000000"><ele></ele><time>2014-6-14T18:52:58Z</time></trkpt>
<trkpt lat="19700101" lon="000000"><ele></ele><time>2014-6-14T18:53:1Z</time></trkpt>
<trkpt lat="19700101" lon="000000"><ele></ele><time>2014-6-14T18:53:4Z</time></trkpt>
<trkpt lat="19700101" lon="000000"><ele></ele><time>2014-6-14T18:53:7Z</time></trkpt>
<trkpt lat="19700101" lon="000000"><ele></ele><time>2014-6-14T18:53:10Z</time></trkpt>
<trkpt lat="19700101" lon="000000"><ele></ele><time>2014-6-14T18:53:13Z</time></trkpt>
<trkpt lat="19700101" lon="000000"><ele></ele><time>2014-6-14T18:53:16Z</time></trkpt>
<trkpt lat="19700101" lon="000000"><ele></ele><time>2014-6-14T18:53:19Z</time></trkpt>
<trkpt lat="19700101" lon="000000"><ele></ele><time>2014-6-14T18:53:22Z</time></trkpt>
<trkpt lat="19700101" lon="000000"><ele></ele><time>2014-6-14T18:53:25Z</time></trkpt>
<trkpt lat="19700101" lon="000000"><ele></ele><time>2014-6-14T18:53:28Z</time></trkpt>
<trkpt lat="19700101" lon="000000"><ele></ele><time>2014-6-14T18:53:31Z</time></trkpt>
<trkpt lat="19700101" lon="000000"><ele></ele><time>2014-6-14T18:53:34Z</time></trkpt>
<trkpt lat="19700101" lon="000000"><ele></ele><time>2014-6-14T18:53:37Z</time></trkpt>
<trkpt lat="19700101" lon="000000"><ele></ele><time>2014-6-14T18:53:40Z</time></trkpt>
<trkpt lat="19700101" lon="000000"><ele></ele><time>2014-6-14T18:53:43Z</time></trkpt>
<trkpt lat="19700101" lon="000000"><ele></ele><time>2014-6-14T18:53:46Z</time></trkpt>
<trkpt lat="19700101" lon="000000"><ele></ele><time>2014-6-14T18:53:49Z</time></trkpt>
<trkpt lat="19700101" lon="000000"><ele></ele><time>2014-6-14T18:53:52Z</time></trkpt>
<trkpt lat="19700101" lon="000000"><ele></ele><time>2014-6-14T18:53:55Z</time></trkpt>
<trkpt lat="19700101" lon="000000"><ele></ele><time>2014-6-14T18:53:58Z</time></trkpt>
<trkpt lat="19700101" lon="000000"><ele></ele><time>2014-6-14T18:54:1Z</time></trkpt>
<trkpt lat="19700101" lon="000000"><ele></ele><time>2014-6-14T18:54:4Z</time></trkpt>
<trkpt lat="19700101" lon="000000"><ele></ele><time>2014-6-14T18:54:7Z</time></trkpt>
<trkpt lat="19700101" lon="000000"><ele></ele><time>2014-6-14T18:54:10Z</time></trkpt>
<trkpt lat="19700101" lon="000000"><ele></ele><time>2014-6-14T18:54:13Z</time></trkpt>
<trkpt lat="19700101" lon="000000"><ele></ele><time>2014-6-14T18:54:16Z</time></trkpt>
<trkpt lat="19700101" lon="000000"><ele></ele><time>2014-6-14T18:54:19Z</time></trkpt>
<trkpt lat="19700101" lon="000000"><ele></ele><time>2014-6-14T18:54:22Z</time></trkpt>
<trkpt lat="19700101" lon="000000"><ele></ele><time>2014-6-14T18:54:25Z</time></trkpt>
<trkpt lat="19700101" lon="000000"><ele></ele><time>2014-6-14T18:54:28Z</time></trkpt>
<trkpt lat="19700101" lon="000000"><ele></ele><time>2014-6-14T18:54:31Z</time></trkpt>
<trkpt lat="19700101" lon="000000"><ele></ele><time>2014-6-14T18:54:34Z</time></trkpt>
<trkpt lat="19700101" lon="000000"><ele></ele><time>2014-6-14T18:54:37Z</time></trkpt>
<trkpt lat="19700101" lon="000000"><ele></ele><time>2014-6-14T18:54:40Z</time></trkpt>
<trkpt lat="19700101" lon="000000"><ele></ele><time>2014-6-14T18:54:43Z</time></trkpt>
<trkpt lat="19700101" lon="000000"><ele></ele><time>2014-6-14T18:54:46Z</time></trkpt>
<trkpt lat="19700101" lon="000000"><ele></ele><time>2014-6-14T18:54:49Z</time></trkpt>
<trkpt lat="19700101" lon="000000"><ele></ele><time>2014-6-14T18:54:52Z</time></trkpt>
<trkpt lat="19700101" lon="000000"><ele></ele><time>2014-6-14T18:54:55Z</time></trkpt>
<trkpt lat="19700101" lon="000000"><ele></ele><time>2014-6-14T18:54:58Z</time></trkpt>
<trkpt lat="19700101" lon="000000"><ele></ele><time>2014-6-14T18:55:1Z</time></trkpt>
<trkpt lat="19700101" lon="000000"><ele></ele><time>2014-6-14T18:55:4Z</time></trkpt>
<trkpt lat="19700101" lon="000000"><ele></ele><time>2014-6-14T18:55:7Z</time></trkpt>
<trkpt lat="19700101" lon="000000"><ele></ele><time>2014-6-14T18:55:10Z</time></trkpt>
<trkpt lat="19700101" lon="000000"><ele></ele><time>2014-6-14T18:55:13Z</time></trkpt>
<trkpt lat="19700101" lon="000000"><ele></ele><time>2014-6-14T18:55:16Z</time></trkpt>
<trkpt lat="19700101" lon="000000"><ele></ele><time>2014-6-14T18:55:19Z</time></trkpt>
<trkpt lat="19700101" lon="000000"><ele></ele><time>2014-6-14T18:55:22Z</time></trkpt>
<trkpt lat="19700101" lon="000000"><ele></ele><time>2014-6-14T18:55:25Z</time></trkpt>
<trkpt lat="19700101" lon="000000"><ele></ele><time>2014-6-14T18:55:28Z</time></trkpt>
<trkpt lat="19700101" lon="000000"><ele></ele><time>2014-6-14T18:55:31Z</time></trkpt>
<trkpt lat="19700101" lon="000000"><ele></ele><time>2014-6-14T18:55:34Z</time></trkpt>
<trkpt lat="19700101" lon="000000"><ele></ele><time>2014-6-14T18:55:37Z</time></trkpt>
<trkpt lat="19700101" lon="000000"><ele></ele><time>2014-6-14T18:55:40Z</time></trkpt>
<trkpt lat="19700101" lon="000000"><ele></ele><time>2014-6-14T18:55:43Z</time></trkpt>
<trkpt lat="19700101" lon="000000"><ele></ele><time>2014-6-14T18:55:46Z</time></trkpt>
<trkpt lat="19700101" lon="000000"><ele></ele><time>2014-6-14T18:55:49Z</time></trkpt>
<trkpt lat="19700101" lon="000000"><ele></ele><time>2014-6-14T18:55:52Z</time></trkpt>
<trkpt lat="19700101" lon="000000"><ele></ele><time>2014-6-14T18:55:55Z</time></trkpt>
<trkpt lat="19700101" lon="000000"><ele></ele><time>2014-6-14T18:55:58Z</time></trkpt>
<trkpt lat="19700101" lon="000000"><ele></ele><time>2014-6-14T18:56:1Z</time></trkpt>
<trkpt lat="19700101" lon="000000"><ele></ele><time>2014-6-14T18:56:4Z</time></trkpt>
<trkpt lat="19700101" lon="000000"><ele></ele><time>2014-6-14T18:56:7Z</time></trkpt>
<trkpt lat="19700101" lon="000000"><ele></ele><time>2014-6-14T18:56:10Z</time></trkpt>
<trkpt lat="19700101" lon="000000"><ele></ele><time>2014-6-14T18:56:13Z</time></trkpt>
<trkpt lat="19700101" lon="000000"><ele></ele><time>2014-6-14T18:56:16Z</time></trkpt>
<trkpt lat="19700101" lon="000000"><ele></ele><time>2014-6-14T18:56:19Z</time></trkpt>
<trkpt lat="19700101" lon="000000"><ele></ele><time>2014-6-14T18:56:22Z</time></trkpt>
<trkpt lat="19700101" lon="000000"><ele></ele><time>2014-6-14T18:56:25Z</time></trkpt>
<trkpt lat="19700101" lon="000000"><ele></ele><time>2014-6-14T18:56:28Z</time></trkpt>
<trkpt lat="19700101" lon="000000"><ele></ele><time>2014-6-14T18:56:31Z</time></trkpt>
<trkpt lat="19700101" lon="000000"><ele></ele><time>2014-6-14T18:56:34Z</time></trkpt>
<trkpt lat="19700101" lon="000000"><ele></ele><time>2014-6-14T18:56:37Z</time></trkpt>
<trkpt lat="19700101" lon="000000"><ele></ele><time>2014-6-14T18:56:40Z</time></trkpt>
<trkpt lat="19700101" lon="000000"><ele></ele><time>2014-6-14T18:56:43Z</time></trkpt>
<trkpt lat="19700101" lon="000000"><ele></ele><time>2014-6-14T18:56:46Z</time></trkpt>
<trkpt lat="19700101" lon="000000"><ele></ele><time>2014-6-14T18:56:49Z</time></trkpt>
<trkpt lat="19700101" lon="000000"><ele></ele><time>2014-6-14T18:56:52Z</time></trkpt>
<trkpt lat="19700101" lon="000000"><ele></ele><time>2014-6-14T18:56:55Z</time></trkpt>
<trkpt lat="19700101" lon="000000"><ele></ele><time>2014-6-14T18:56:58Z</time></trkpt>
<trkpt lat="19700101" lon="000000"><ele></ele><time>2014-6-14T18:57:1Z</time></trkpt>
<trkpt lat="19700101" lon="000000"><ele></ele><time>2014-6-14T18:57:4Z</time></trkpt>
<trkpt lat="19700101" lon="000000"><ele></ele><time>2014-6-14T18:57:7Z</time></trkpt>
<trkpt lat="19700101" lon="000000"><ele></ele><time>2014-6-14T18:57:10Z</time></trkpt>
<trkpt lat="19700101" lon="000000"><ele></ele><time>2014-6-14T18:57:13Z</time></trkpt>
<trkpt lat="19700101" lon="000000"><ele></ele><time>2014-6-14T18:57:16Z</time></trkpt>
<trkpt lat="19700101" lon="000000"><ele></ele><time>2014-6-14T18:57:19Z</time></trkpt>
<trkpt lat="19700101" lon="000000"><ele></ele><time>2014-6-14T18:57:22Z</time></trkpt>
<trkpt lat="19700101" lon="000000"><ele></ele><time>2014-6-14T18:57:25Z</time></trkpt>
<trkpt lat="19700101" lon="000000"><ele></ele><time>2014-6-14T18:57:28Z</time></trkpt>
<trkpt lat="19700101" lon="000000"><ele></ele><time>2014-6-14T18:57:31Z</time></trkpt>
<trkpt lat="19700101" lon="000000"><ele></ele><time>2014-6-14T18:57:34Z</time></trkpt>
<trkpt lat="19700101" lon="000000"><ele></ele><time>2014-6-14T18:57:37Z</time></trkpt>
<trkpt lat="19700101" lon="000000"><ele></ele><time>2014-6-14T18:57:40Z</time></trkpt>
<trkpt lat="19700101" lon="000000"><ele></ele><time>2014-6-14T18:57:43Z</time></trkpt>
<trkpt lat="19700101" lon="000000"><ele></ele><time>2014-6-14T18:57:46Z</time></trkpt>
<trkpt lat="19700101" lon="000000"><ele></ele><time>2014-6-14T18:57:49Z</time></trkpt>
<trkpt lat="19700101" lon="000000"><ele></ele><time>2014-6-14T18:57:52Z</time></trkpt>
<trkpt lat="19700101" lon="000000"><ele></ele><time>2014-6-14T18:57:55Z</time></trkpt>
<trkpt lat="19700101" lon="000000"><ele></ele><time>2014-6-14T18:57:58Z</time></trkpt>
<trkpt lat="19700101" lon="000000"><ele></ele><time>2014-6-14T18:58:1Z</time></trkpt>
<trkpt lat="19700101" lon="000000"><ele></ele><time>2014-6-14T18:58:4Z</time></trkpt>
<trkpt lat="19700101" lon="000000"><ele></ele><time>2014-6-14T18:58:7Z</time></trkpt>
<trkpt lat="19700101" lon="000000"><ele></ele><time>2014-6-14T18:58:10Z</time></trkpt>
<trkpt lat="19700101" lon="000000"><ele></ele><time>2014-6-14T18:58:13Z</time></trkpt>
<trkpt lat="19700101" lon="000000"><ele></ele><time>2014-6-14T18:58:16Z</time></trkpt>
<trkpt lat="19700101" lon="000000"><ele></ele><time>2014-6-14T18:58:19Z</time></trkpt>
<trkpt lat="19700101" lon="000000"><ele></ele><time>2014-6-14T18:58:22Z</time></trkpt>
<trkpt lat="19700101" lon="000000"><ele></ele><time>2014-6-14T18:58:25Z</time></trkpt>
<trkpt lat="19700101" lon="000000"><ele></ele><time>2014-6-14T18:58:28Z</time></trkpt>
<trkpt lat="19700101" lon="000000"><ele></ele><time>2014-6-14T18:58:31Z</time></trkpt>
<trkpt lat="19700101" lon="000000"><ele></ele><time>2014-6-14T18:58:34Z</time></trkpt>
<trkpt lat="19700101" lon="000000"><ele></ele><time>2014-6-14T18:58:37Z</time></trkpt>
<trkpt lat="19700101" lon="000000"><ele></ele><time>2014-6-14T18:58:40Z</time></trkpt>
<trkpt lat="19700101" lon="000000"><ele></ele><time>2014-6-14T18:58:43Z</time></trkpt>
<trkpt lat="19700101" lon="000000"><ele></ele><time>2014-6-14T18:58:46Z</time></trkpt>
<trkpt lat="19700101" lon="000000"><ele></ele><time>2014-6-14T18:58:49Z</time></trkpt>
<trkpt lat="19700101" lon="000000"><ele></ele><time>2014-6-14T18:58:52Z</time></trkpt>
<trkpt lat="19700101" lon="000000"><ele></ele><time>2014-6-14T18:58:55Z</time></trkpt>
<trkpt lat="19700101" lon="000000"><ele></ele><time>2014-6-14T18:58:58Z</time></trkpt>
<trkpt lat="19700101" lon="000000"><ele></ele><time>2014-6-14T18:59:1Z</time></trkpt>
<trkpt lat="19700101" lon="000000"><ele></ele><time>2014-6-14T18:59:4Z</time></trkpt>
<trkpt lat="19700101" lon="000000"><ele></ele><time>2014-6-14T18:59:7Z</time></trkpt>
<trkpt lat="19700101" lon="000000"><ele></ele><time>2014-6-14T18:59:10Z</time></trkpt>
<trkpt lat="19700101" lon="000000"><ele></ele><time>2014-6-14T18:59:13Z</time></trkpt>
<trkpt lat="19700101" lon="000000"><ele></ele><time>2014-6-14T18:59:16Z</time></trkpt>
<trkpt lat="19700101" lon="000000"><ele></ele><time>2014-6-14T18:59:19Z</time></trkpt>
<trkpt lat="19700101" lon="000000"><ele></ele><time>2014-6-14T18:59:22Z</time></trkpt>
<trkpt lat="19700101" lon="000000"><ele></ele><time>2014-6-14T18:59:25Z</time></trkpt>
<trkpt lat="19700101" lon="000000"><ele></ele><time>2014-6-14T18:59:28Z</time></trkpt>
<trkpt lat="19700101" lon="000000"><ele></ele><time>2014-6-14T18:59:31Z</time></trkpt>
<trkpt lat="19700101" lon="000000"><ele></ele><time>2014-6-14T18:59:34Z</time></trkpt>
<trkpt lat="19700101" lon="000000"><ele></ele><time>2014-6-14T18:59:37Z</time></trkpt>
<trkpt lat="19700101" lon="000000"><ele></ele><time>2014-6-14T18:59:40Z</time></trkpt>
<trkpt lat="19700101" lon="000000"><ele></ele><time>2014-6-14T18:59:43Z</time></trkpt>
<trkpt lat="19700101" lon="000000"><ele></ele><time>2014-6-14T18:59:46Z</time></trkpt>
<trkpt lat="19700101" lon="000000"><ele></ele><time>2014-6-14T18:59:49Z</time></trkpt>
<trkpt lat="19700101" lon="000000"><ele></ele><time>2014-6-14T18:59:52Z</time></trkpt>
<trkpt lat="19700101" lon="000000"><ele></ele><time>2014-6-14T18:59:55Z</time></trkpt>
<trkpt lat="19700101" lon="000000"><ele></ele><time>2014-6-14T18:59:58Z</time></trkpt>
<trkpt lat="19700101" lon="000000"><ele></ele><time>2014-6-14T19:0:1Z</time></trkpt>
<trkpt lat="19700101" lon="000000"><ele></ele><time>2014-6-14T19:0:4Z</time></trkpt>
<trkpt lat="19700101" lon="000000"><ele></ele><time>2014-6-14T19:0:7Z</time></trkpt>
<trkpt lat="19700101" lon="000000"><ele></ele><time>2014-6-14T19:0:10Z</time></trkpt>
<trkpt lat="19700101" lon="000000"><ele></ele><time>2014-6-14T19:0:13Z</time></trkpt>
<trkpt lat="19700101" lon="000000"><ele></ele><time>2014-6-14T19:0:16Z</time></trkpt>
<trkpt lat="19700101" lon="000000"><ele></ele><time>2014-6-14T19:0:19Z</time></trkpt>
<trkpt lat="19700101" lon="000000"><ele></ele><time>2014-6-14T19:0:22Z</time></trkpt>
<trkpt lat="19700101" lon="000000"><ele></ele><time>2014-6-14T19:0:25Z</time></trkpt>
<trkpt lat="19700101" lon="000000"><ele></ele><time>2014-6-14T19:0:28Z</time></trkpt>
<trkpt lat="19700101" lon="000000"><ele></ele><time>2014-6-14T19:0:31Z</time></trkpt>
<trkpt lat="19700101" lon="000000"><ele></ele><time>2014-6-14T19:0:34Z</time></trkpt>
<trkpt lat="19700101" lon="000000"><ele></ele><time>2014-6-14T19:0:37Z</time></trkpt>
<trkpt lat="19700101" lon="000000"><ele></ele><time>2014-6-14T19:0:40Z</time></trkpt>
<trkpt lat="19700101" lon="000000"><ele></ele><time>2014-6-14T19:0:43Z</time></trkpt>
<trkpt lat="19700101" lon="000000"><ele></ele><time>2014-6-14T19:0:46Z</time></trkpt>
<trkpt lat="19700101" lon="000000"><ele></ele><time>2014-6-14T19:0:49Z</time></trkpt>
<trkpt lat="19700101" lon="000000"><ele></ele><time>2014-6-14T19:0:52Z</time></trkpt>
<trkpt lat="19700101" lon="000000"><ele></ele><time>2014-6-14T19:0:55Z</time></trkpt>
<trkpt lat="19700101" lon="000000"><ele></ele><time>2014-6-14T19:0:58Z</time></trkpt>
<trkpt lat="19700101" lon="000000"><ele></ele><time>2014-6-14T19:1:1Z</time></trkpt>
<trkpt lat="19700101" lon="000000"><ele></ele><time>2014-6-14T19:1:4Z</time></trkpt>
<trkpt lat="19700101" lon="000000"><ele></ele><time>2014-6-14T19:1:7Z</time></trkpt>
<trkpt lat="19700101" lon="000000"><ele></ele><time>2014-6-14T19:1:10Z</time></trkpt>
<trkpt lat="19700101" lon="000000"><ele></ele><time>2014-6-14T19:1:13Z</time></trkpt>
<trkpt lat="19700101" lon="000000"><ele></ele><time>2014-6-14T19:1:16Z</time></trkpt>
<trkpt lat="19700101" lon="000000"><ele></ele><time>2014-6-14T19:1:19Z</time></trkpt>
<trkpt lat="19700101" lon="000000"><ele></ele><time>2014-6-14T19:1:22Z</time></trkpt>
<trkpt lat="19700101" lon="000000"><ele></ele><time>2014-6-14T19:1:25Z</time></trkpt>
<trkpt lat="19700101" lon="000000"><ele></ele><time>2014-6-14T19:1:28Z</time></trkpt>
<trkpt lat="19700101" lon="000000"><ele></ele><time>2014-6-14T19:1:31Z</time></trkpt>
<trkpt lat="19700101" lon="000000"><ele></ele><time>2014-6-14T19:1:34Z</time></trkpt>
<trkpt lat="19700101" lon="000000"><ele></ele><time>2014-6-14T19:1:37Z</time></trkpt>
<trkpt lat="19700101" lon="000000"><ele></ele><time>2014-6-14T19:1:40Z</time></trkpt>
<trkpt lat="19700101" lon="000000"><ele></ele><time>2014-6-14T19:1:43Z</time></trkpt>
<trkpt lat="19700101" lon="000000"><ele></ele><time>2014-6-14T19:1:46Z</time></trkpt>
<trkpt lat="19700101" lon="000000"><ele></ele><time>2014-6-14T19:1:49Z</time></trkpt>
<trkpt lat="19700101" lon="000000"><ele></ele><time>2014-6-14T19:1:52Z</time></trkpt>
<trkpt lat="19700101" lon="000000"><ele></ele><time>2014-6-14T19:1:55Z</time></trkpt>
<trkpt lat="19700101" lon="000000"><ele></ele><time>2014-6-14T19:1:58Z</time></trkpt>
<trkpt lat="19700101" lon="000000"><ele></ele><time>2014-6-14T19:2:1Z</time></trkpt>
<trkpt lat="19700101" lon="000000"><ele></ele><time>2014-6-14T19:2:4Z</time></trkpt>
<trkpt lat="19700101" lon="000000"><ele></ele><time>2014-6-14T19:2:7Z</time></trkpt>
<trkpt lat="19700101" lon="000000"><ele></ele><time>2014-6-14T19:2:10Z</time></trkpt>
<trkpt lat="19700101" lon="000000"><ele></ele><time>2014-6-14T19:2:13Z</time></trkpt>
<trkpt lat="19700101" lon="000000"><ele></ele><time>2014-6-14T19:2:16Z</time></trkpt>
<trkpt lat="19700101" lon="000000"><ele></ele><time>2014-6-14T19:2:19Z</time></trkpt>
<trkpt lat="19700101" lon="000000"><ele></ele><time>2014-6-14T19:2:22Z</time></trkpt>
<trkpt lat="19700101" lon="000000"><ele></ele><time>2014-6-14T19:2:25Z</time></trkpt>
<trkpt lat="19700101" lon="000000"><ele></ele><time>2014-6-14T19:2:28Z</time></trkpt>
<trkpt lat="19700101" lon="000000"><ele></ele><time>2014-6-14T19:2:31Z</time></trkpt>
<trkpt lat="19700101" lon="000000"><ele></ele><time>2014-6-14T19:2:34Z</time></trkpt>
<trkpt lat="19700101" lon="000000"><ele></ele><time>2014-6-14T19:2:37Z</time></trkpt>
<trkpt lat="19700101" lon="000000"><ele></ele><time>2014-6-14T19:2:40Z</time></trkpt>
<trkpt lat="19700101" lon="000000"><ele></ele><time>2014-6-14T19:2:43Z</time></trkpt>
<trkpt lat="19700101" lon="000000"><ele></ele><time>2014-6-14T19:2:46Z</time></trkpt>
<trkpt lat="19700101" lon="000000"><ele></ele><time>2014-6-14T19:2:49Z</time></trkpt>
<trkpt lat="19700101" lon="000000"><ele></ele><time>2014-6-14T19:2:52Z</time></trkpt>
<trkpt lat="19700101" lon="000000"><ele></ele><time>2014-6-14T19:2:55Z</time></trkpt>
<trkpt lat="19700101" lon="000000"><ele></ele><time>2014-6-14T19:2:58Z</time></trkpt>
<trkpt lat="19700101" lon="000000"><ele></ele><time>2014-6-14T19:3:1Z</time></trkpt>
<trkpt lat="19700101" lon="000000"><ele></ele><time>2014-6-14T19:3:4Z</time></trkpt>
<trkpt lat="19700101" lon="000000"><ele></ele><time>2014-6-14T19:3:7Z</time></trkpt>
<trkpt lat="19700101" lon="000000"><ele></ele><time>2014-6-14T19:3:10Z</time></trkpt>
<trkpt lat="19700101" lon="000000"><ele></ele><time>2014-6-14T19:3:13Z</time></trkpt>
<trkpt lat="19700101" lon="000000"><ele></ele><time>2014-6-14T19:3:16Z</time></trkpt>
<trkpt lat="19700101" lon="000000"><ele></ele><time>2014-6-14T19:3:19Z</time></trkpt>
<trkpt lat="19700101" lon="000000"><ele></ele><time>2014-6-14T19:3:22Z</time></trkpt>
<trkpt lat="19700101" lon="000000"><ele></ele><time>2014-6-14T19:3:25Z</time></trkpt>
<trkpt lat="19700101" lon="000000"><ele></ele><time>2014-6-14T19:3:28Z</time></trkpt>
<trkpt lat="19700101" lon="000000"><ele></ele><time>2014-6-14T19:3:31Z</time></trkpt>
<trkpt lat="19700101" lon="000000"><ele></ele><time>2014-6-14T19:3:34Z</time></trkpt>
<trkpt lat="19700101" lon="000000"><ele></ele><time>2014-6-14T19:3:37Z</time></trkpt>
<trkpt lat="19700101" lon="000000"><ele></ele><time>2014-6-14T19:3:40Z</time></trkpt>
<trkpt lat="19700101" lon="000000"><ele></ele><time>2014-6-14T19:3:43Z</time></trkpt>
<trkpt lat="19700101" lon="000000"><ele></ele><time>2014-6-14T19:3:46Z</time></trkpt>
<trkpt lat="19700101" lon="000000"><ele></ele><time>2014-6-14T19:3:49Z</time></trkpt>
<trkpt lat="19700101" lon="000000"><ele></ele><time>2014-6-14T19:3:52Z</time></trkpt>
<trkpt lat="19700101" lon="000000"><ele></ele><time>2014-6-14T19:3:55Z</time></trkpt>
<trkpt lat="19700101" lon="000000"><ele></ele><time>2014-6-14T19:3:58Z</time></trkpt>
<trkpt lat="19700101" lon="000000"><ele></ele><time>2014-6-14T19:4:1Z</time></trkpt>
<trkpt lat="19700101" lon="000000"><ele></ele><time>2014-6-14T19:4:4Z</time></trkpt>
<trkpt lat="19700101" lon="000000"><ele></ele><time>2014-6-14T19:4:7Z</time></trkpt>
<trkpt lat="19700101" lon="000000"><ele></ele><time>2014-6-14T19:4:10Z</time></trkpt>
<trkpt lat="19700101" lon="000000"><ele></ele><time>2014-6-14T19:4:13Z</time></trkpt>
<trkpt lat="19700101" lon="000000"><ele></ele><time>2014-6-14T19:4:16Z</time></trkpt>
<trkpt lat="19700101" lon="000000"><ele></ele><time>2014-6-14T19:4:19Z</time></trkpt>
<trkpt lat="19700101" lon="000000"><ele></ele><time>2014-6-14T19:4:22Z</time></trkpt>
<trkpt lat="19700101" lon="000000"><ele></ele><time>2014-6-14T19:4:25Z</time></trkpt>
<trkpt lat="19700101" lon="000000"><ele></ele><time>2014-6-14T19:4:28Z</time></trkpt>
<trkpt lat="19700101" lon="000000"><ele></ele><time>2014-6-14T19:4:31Z</time></trkpt>
<trkpt lat="19700101" lon="000000"><ele></ele><time>2014-6-14T19:4:34Z</time></trkpt>
<trkpt lat="19700101" lon="000000"><ele></ele><time>2014-6-14T19:4:37Z</time></trkpt>
<trkpt lat="19700101" lon="000000"><ele></ele><time>2014-6-14T19:4:40Z</time></trkpt>
<trkpt lat="19700101" lon="000000"><ele></ele><time>2014-6-14T19:4:43Z</time></trkpt>
<trkpt lat="19700101" lon="000000"><ele></ele><time>2014-6-14T19:4:46Z</time></trkpt>
<trkpt lat="19700101" lon="000000"><ele></ele><time>2014-6-14T19:4:49Z</time></trkpt>
<trkpt lat="19700101" lon="000000"><ele></ele><time>2014-6-14T19:4:52Z</time></trkpt>
<trkpt lat="19700101" lon="000000"><ele></ele><time>2014-6-14T19:4:55Z</time></trkpt>
<trkpt lat="19700101" lon="000000"><ele></ele><time>2014-6-14T19:4:58Z</time></trkpt>
<trkpt lat="19700101" lon="000000"><ele></ele><time>2014-6-14T19:5:1Z</time></trkpt>
<trkpt lat="19700101" lon="000000"><ele></ele><time>2014-6-14T19:5:4Z</time></trkpt>
<trkpt lat="19700101" lon="000000"><ele></ele><time>2014-6-14T19:5:7Z</time></trkpt>
<trkpt lat="19700101" lon="000000"><ele></ele><time>2014-6-14T19:5:10Z</time></trkpt>
<trkpt lat="19700101" lon="000000"><ele></ele><time>2014-6-14T19:5:13Z</time></trkpt>
<trkpt lat="19700101" lon="000000"><ele></ele><time>2014-6-14T19:5:16Z</time></trkpt>
<trkpt lat="19700101" lon="000000"><ele></ele><time>2014-6-14T19:5:19Z</time></trkpt>
<trkpt lat="19700101" lon="000000"><ele></ele><time>2014-6-14T19:5:22Z</time></trkpt>
<trkpt lat="19700101" lon="000000"><ele></ele><time>2014-6-14T19:5:25Z</time></trkpt>
<trkpt lat="19700101" lon="000000"><ele></ele><time>2014-6-14T19:5:28Z</time></trkpt>
<trkpt lat="19700101" lon="000000"><ele></ele><time>2014-6-14T19:5:31Z</time></trkpt>
<trkpt lat="19700101" lon="000000"><ele></ele><time>2014-6-14T19:5:34Z</time></trkpt>
<trkpt lat="19700101" lon="000000"><ele></ele><time>2014-6-14T19:5:37Z</time></trkpt>
<trkpt lat="19700101" lon="000000"><ele></ele><time>2014-6-14T19:5:40Z</time></trkpt>
<trkpt lat="19700101" lon="000000"><ele></ele><time>2014-6-14T19:5:43Z</time></trkpt>
<trkpt lat="19700101" lon="000000"><ele></ele><time>2014-6-14T19:5:46Z</time></trkpt>
<trkpt lat="19700101" lon="000000"><ele></ele><time>2014-6-14T19:5:49Z</time></trkpt>
<trkpt lat="19700101" lon="000000"><ele></ele><time>2014-6-14T19:5:52Z</time></trkpt>
<trkpt lat="19700101" lon="000000"><ele></ele><time>2014-6-14T19:5:55Z</time></trkpt>
<trkpt lat="19700101" lon="000000"><ele></ele><time>2014-6-14T19:5:58Z</time></trkpt>
<trkpt lat="19700101" lon="000000"><ele></ele><time>2014-6-14T19:6:1Z</time></trkpt>
<trkpt lat="19700101" lon="000000"><ele></ele><time>2014-6-14T19:6:4Z</time></trkpt>
<trkpt lat="19700101" lon="000000"><ele></ele><time>2014-6-14T19:6:7Z</time></trkpt>
<trkpt lat="19700101" lon="000000"><ele></ele><time>2014-6-14T19:6:10Z</time></trkpt>
<trkpt lat="19700101" lon="000000"><ele></ele><time>2014-6-14T19:6:13Z</time></trkpt>
<trkpt lat="19700101" lon="000000"><ele></ele><time>2014-6-14T19:6:16Z</time></trkpt>
<trkpt lat="19700101" lon="000000"><ele></ele><time>2014-6-14T19:6:19Z</time></trkpt>
<trkpt lat="19700101" lon="000000"><ele></ele><time>2014-6-14T19:6:22Z</time></trkpt>
<trkpt lat="19700101" lon="000000"><ele></ele><time>2014-6-14T19:6:25Z</time></trkpt>
<trkpt lat="19700101" lon="000000"><ele></ele><time>2014-6-14T19:6:28Z</time></trkpt>
<trkpt lat="19700101" lon="000000"><ele></ele><time>2014-6-14T19:6:31Z</time></trkpt>
<trkpt lat="19700101" lon="000000"><ele></ele><time>2014-6-14T19:6:34Z</time></trkpt>
<trkpt lat="19700101" lon="000000"><ele></ele><time>2014-6-14T19:6:37Z</time></trkpt>
<trkpt lat="19700101" lon="000000"><ele></ele><time>2014-6-14T19:6:40Z</time></trkpt>
<trkpt lat="19700101" lon="000000"><ele></ele><time>2014-6-14T19:6:43Z</time></trkpt>
<trkpt lat="19700101" lon="000000"><ele></ele><time>2014-6-14T19:6:46Z</time></trkpt>
<trkpt lat="19700101" lon="000000"><ele></ele><time>2014-6-14T19:6:49Z</time></trkpt>
<trkpt lat="19700101" lon="000000"><ele></ele><time>2014-6-14T19:6:52Z</time></trkpt>
<trkpt lat="19700101" lon="000000"><ele></ele><time>2014-6-14T19:6:55Z</time></trkpt>
<trkpt lat="19700101" lon="000000"><ele></ele><time>2014-6-14T19:6:58Z</time></trkpt>
<trkpt lat="19700101" lon="000000"><ele></ele><time>2014-6-14T19:7:1Z</time></trkpt>
<trkpt lat="19700101" lon="000000"><ele></ele><time>2014-6-14T19:7:4Z</time></trkpt>
<trkpt lat="19700101" lon="000000"><ele></ele><time>2014-6-14T19:7:7Z</time></trkpt>
<trkpt lat="19700101" lon="000000"><ele></ele><time>2014-6-14T19:7:10Z</time></trkpt>
<trkpt lat="19700101" lon="000000"><ele></ele><time>2014-6-14T19:7:13Z</time></trkpt>
<trkpt lat="19700101" lon="000000"><ele></ele><time>2014-6-14T19:7:16Z</time></trkpt>
<trkpt lat="19700101" lon="000000"><ele></ele><time>2014-6-14T19:7:19Z</time></trkpt>
<trkpt lat="19700101" lon="000000"><ele></ele><time>2014-6-14T19:7:22Z</time></trkpt>
<trkpt lat="19700101" lon="000000"><ele></ele><time>2014-6-14T19:7:25Z</time></trkpt>
<trkpt lat="19700101" lon="000000"><ele></ele><time>2014-6-14T19:7:28Z</time></trkpt>
<trkpt lat="19700101" lon="000000"><ele></ele><time>2014-6-14T19:7:31Z</time></trkpt>
<trkpt lat="19700101" lon="000000"><ele></ele><time>2014-6-14T19:7:34Z</time></trkpt>
<trkpt lat="19700101" lon="000000"><ele></ele><time>2014-6-14T19:7:37Z</time></trkpt>
<trkpt lat="19700101" lon="000000"><ele></ele><time>2014-6-14T19:7:40Z</time></trkpt>
<trkpt lat="19700101" lon="000000"><ele></ele><time>2014-6-14T19:7:43Z</time></trkpt>
<trkpt lat="19700101" lon="000000"><ele></ele><time>2014-6-14T19:7:46Z</time></trkpt>
<trkpt lat="19700101" lon="000000"><ele></ele><time>2014-6-14T19:7:49Z</time></trkpt>
<trkpt lat="19700101" lon="000000"><ele></ele><time>2014-6-14T19:7:52Z</time></trkpt>
<trkpt lat="19700101" lon="000000"><ele></ele><time>2014-6-14T19:7:55Z</time></trkpt>
<trkpt lat="19700101" lon="000000"><ele></ele><time>2014-6-14T19:7:58Z</time></trkpt>
<trkpt lat="19700101" lon="000000"><ele></ele><time>2014-6-14T19:8:1Z</time></trkpt>
<trkpt lat="19700101" lon="000000"><ele></ele><time>2014-6-14T19:8:4Z</time></trkpt>
<trkpt lat="19700101" lon="000000"><ele></ele><time>2014-6-14T19:8:7Z</time></trkpt>
<trkpt lat="19700101" lon="000000"><ele></ele><time>2014-6-14T19:8:10Z</time></trkpt>
<trkpt lat="19700101" lon="000000"><ele></ele><time>2014-6-14T19:8:13Z</time></trkpt>
<trkpt lat="19700101" lon="000000"><ele></ele><time>2014-6-14T19:8:16Z</time></trkpt>
<trkpt lat="19700101" lon="000000"><ele></ele><time>2014-6-14T19:8:19Z</time></trkpt>
<trkpt lat="19700101" lon="000000"><ele></ele><time>2014-6-14T19:8:22Z</time></trkpt>
<trkpt lat="19700101" lon="000000"><ele></ele><time>2014-6-14T19:8:25Z</time></trkpt>
<trkpt lat="19700101" lon="000000"><ele></ele><time>2014-6-14T19:8:28Z</time></trkpt>
<trkpt lat="19700101" lon="000000"><ele></ele><time>2014-6-14T19:8:31Z</time></trkpt>
<trkpt lat="19700101" lon="000000"><ele></ele><time>2014-6-14T19:8:34Z</time></trkpt>
<trkpt lat="19700101" lon="000000"><ele></ele><time>2014-6-14T19:8:37Z</time></trkpt>
<trkpt lat="19700101" lon="000000"><ele></ele><time>2014-6-14T19:8:40Z</time></trkpt>
<trkpt lat="19700101" lon="000000"><ele></ele><time>2014-6-14T19:8:43Z</time></trkpt>
<trkpt lat="19700101" lon="000000"><ele></ele><time>2014-6-14T19:8:46Z</time></trkpt>
<trkpt lat="19700101" lon="000000"><ele></ele><time>2014-6-14T19:8:49Z</time></trkpt>
<trkpt lat="19700101" lon="000000"><ele></ele><time>2014-6-14T19:8:52Z</time></trkpt>
<trkpt lat="19700101" lon="000000"><ele></ele><time>2014-6-14T19:8:55Z</time></trkpt>
<trkpt lat="19700101" lon="000000"><ele></ele><time>2014-6-14T19:8:58Z</time></trkpt>
<trkpt lat="19700101" lon="000000"><ele></ele><time>2014-6-14T19:9:1Z</time></trkpt>
<trkpt lat="19700101" lon="000000"><ele></ele><time>2014-6-14T19:9:4Z</time></trkpt>
<trkpt lat="19700101" lon="000000"><ele></ele><time>2014-6-14T19:9:7Z</time></trkpt>
<trkpt lat="19700101" lon="000000"><ele></ele><time>2014-6-14T19:9:10Z</time></trkpt>
<trkpt lat="19700101" lon="000000"><ele></ele><time>2014-6-14T19:9:13Z</time></trkpt>
<trkpt lat="19700101" lon="000000"><ele></ele><time>2014-6-14T19:9:16Z</time></trkpt>
<trkpt lat="19700101" lon="000000"><ele></ele><time>2014-6-14T19:9:19Z</time></trkpt>
<trkpt lat="19700101" lon="000000"><ele></ele><time>2014-6-14T19:9:22Z</time></trkpt>
<trkpt lat="19700101" lon="000000"><ele></ele><time>2014-6-14T19:9:25Z</time></trkpt>
<trkpt lat="19700101" lon="000000"><ele></ele><time>2014-6-14T19:9:28Z</time></trkpt>
<trkpt lat="19700101" lon="000000"><ele></ele><time>2014-6-14T19:9:31Z</time></trkpt>
<trkpt lat="19700101" lon="000000"><ele></ele><time>2014-6-14T19:9:34Z</time></trkpt>
<trkpt lat="19700101" lon="000000"><ele></ele><time>2014-6-14T19:9:37Z</time></trkpt>
<trkpt lat="19700101" lon="000000"><ele></ele><time>2014-6-14T19:9:40Z</time></trkpt>
<trkpt lat="19700101" lon="000000"><ele></ele><time>2014-6-14T19:9:43Z</time></trkpt>
<trkpt lat="19700101" lon="000000"><ele></ele><time>2014-6-14T19:9:46Z</time></trkpt>
<trkpt lat="19700101" lon="000000"><ele></ele><time>2014-6-14T19:9:49Z</time></trkpt>
<trkpt lat="19700101" lon="000000"><ele></ele><time>2014-6-14T19:9:52Z</time></trkpt>
<trkpt lat="19700101" lon="000000"><ele></ele><time>2014-6-14T19:9:55Z</time></trkpt>
<trkpt lat="19700101" lon="000000"><ele></ele><time>2014-6-14T19:9:58Z</time></trkpt>
<trkpt lat="19700101" lon="000000"><ele></ele><time>2014-6-14T19:10:1Z</time></trkpt>
<trkpt lat="19700101" lon="000000"><ele></ele><time>2014-6-14T19:10:4Z</time></trkpt>
<trkpt lat="19700101" lon="000000"><ele></ele><time>2014-6-14T19:10:7Z</time></trkpt>
<trkpt lat="19700101" lon="000000"><ele></ele><time>2014-6-14T19:10:10Z</time></trkpt>
<trkpt lat="19700101" lon="000000"><ele></ele><time>2014-6-14T19:10:13Z</time></trkpt>
<trkpt lat="19700101" lon="000000"><ele></ele><time>2014-6-14T19:10:16Z</time></trkpt>
<trkpt lat="19700101" lon="000000"><ele></ele><time>2014-6-14T19:10:19Z</time></trkpt>
<trkpt lat="19700101" lon="000000"><ele></ele><time>2014-6-14T19:10:22Z</time></trkpt>
<trkpt lat="19700101" lon="000000"><ele></ele><time>2014-6-14T19:10:25Z</time></trkpt>
<trkpt lat="19700101" lon="000000"><ele></ele><time>2014-6-14T19:10:28Z</time></trkpt>
<trkpt lat="19700101" lon="000000"><ele></ele><time>2014-6-14T19:10:31Z</time></trkpt>
<trkpt lat="19700101" lon="000000"><ele></ele><time>2014-6-14T19:10:34Z</time></trkpt>
<trkpt lat="19700101" lon="000000"><ele></ele><time>2014-6-14T19:10:37Z</time></trkpt>
<trkpt lat="19700101" lon="000000"><ele></ele><time>2014-6-14T19:10:40Z</time></trkpt>
<trkpt lat="19700101" lon="000000"><ele></ele><time>2014-6-14T19:10:43Z</time></trkpt>
<trkpt lat="19700101" lon="000000"><ele></ele><time>2014-6-14T19:10:46Z</time></trkpt>
<trkpt lat="19700101" lon="000000"><ele></ele><time>2014-6-14T19:10:49Z</time></trkpt>
<trkpt lat="19700101" lon="000000"><ele></ele><time>2014-6-14T19:10:52Z</time></trkpt>
<trkpt lat="19700101" lon="000000"><ele></ele><time>2014-6-14T19:10:55Z</time></trkpt>
<trkpt lat="19700101" lon="000000"><ele></ele><time>2014-6-14T19:10:58Z</time></trkpt>
<trkpt lat="19700101" lon="000000"><ele></ele><time>2014-6-14T19:11:1Z</time></trkpt>
<trkpt lat="19700101" lon="000000"><ele></ele><time>2014-6-14T19:11:4Z</time></trkpt>
<trkpt lat="19700101" lon="000000"><ele></ele><time>2014-6-14T19:11:7Z</time></trkpt>
<trkpt lat="19700101" lon="000000"><ele></ele><time>2014-6-14T19:11:10Z</time></trkpt>
<trkpt lat="19700101" lon="000000"><ele></ele><time>2014-6-14T19:11:13Z</time></trkpt>
<trkpt lat="19700101" lon="000000"><ele></ele><time>2014-6-14T19:11:16Z</time></trkpt>
<trkpt lat="19700101" lon="000000"><ele></ele><time>2014-6-14T19:11:19Z</time></trkpt>
<trkpt lat="19700101" lon="000000"><ele></ele><time>2014-6-14T19:11:22Z</time></trkpt>
<trkpt lat="19700101" lon="000000"><ele></ele><time>2014-6-14T19:11:25Z</time></trkpt>
<trkpt lat="19700101" lon="000000"><ele></ele><time>2014-6-14T19:11:28Z</time></trkpt>
<trkpt lat="19700101" lon="000000"><ele></ele><time>2014-6-14T19:11:31Z</time></trkpt>
<trkpt lat="19700101" lon="000000"><ele></ele><time>2014-6-14T19:11:34Z</time></trkpt>
<trkpt lat="19700101" lon="000000"><ele></ele><time>2014-6-14T19:11:37Z</time></trkpt>
<trkpt lat="19700101" lon="000000"><ele></ele><time>2014-6-14T19:11:40Z</time></trkpt>
<trkpt lat="19700101" lon="000000"><ele></ele><time>2014-6-14T19:11:43Z</time></trkpt>
<trkpt lat="19700101" lon="000000"><ele></ele><time>2014-6-14T19:11:46Z</time></trkpt>
<trkpt lat="19700101" lon="000000"><ele></ele><time>2014-6-14T19:11:49Z</time></trkpt>
<trkpt lat="19700101" lon="000000"><ele></ele><time>2014-6-14T19:11:52Z</time></trkpt>
<trkpt lat="19700101" lon="000000"><ele></ele><time>2014-6-14T19:11:55Z</time></trkpt>
<trkpt lat="19700101" lon="000000"><ele></ele><time>2014-6-14T19:11:58Z</time></trkpt>
<trkpt lat="19700101" lon="000000"><ele></ele><time>2014-6-14T19:12:1Z</time></trkpt>
<trkpt lat="19700101" lon="000000"><ele></ele><time>2014-6-14T19:12:4Z</time></trkpt>
<trkpt lat="19700101" lon="000000"><ele></ele><time>2014-6-14T19:12:7Z</time></trkpt>
<trkpt lat="19700101" lon="000000"><ele></ele><time>2014-6-14T19:12:10Z</time></trkpt>
<trkpt lat="19700101" lon="000000"><ele></ele><time>2014-6-14T19:12:13Z</time></trkpt>
<trkpt lat="19700101" lon="000000"><ele></ele><time>2014-6-14T19:12:16Z</time></trkpt>
<trkpt lat="19700101" lon="000000"><ele></ele><time>2014-6-14T19:12:19Z</time></trkpt>
<trkpt lat="19700101" lon="000000"><ele></ele><time>2014-6-14T19:12:22Z</time></trkpt>
<trkpt lat="19700101" lon="000000"><ele></ele><time>2014-6-14T19:12:25Z</time></trkpt>
<trkpt lat="19700101" lon="000000"><ele></ele><time>2014-6-14T19:12:28Z</time></trkpt>
<trkpt lat="19700101" lon="000000"><ele></ele><time>2014-6-14T19:12:31Z</time></trkpt>
<trkpt lat="19700101" lon="000000"><ele></ele><time>2014-6-14T19:12:34Z</time></trkpt>
<trkpt lat="19700101" lon="000000"><ele></ele><time>2014-6-14T19:12:37Z</time></trkpt>
<trkpt lat="19700101" lon="000000"><ele></ele><time>2014-6-14T19:12:40Z</time></trkpt>
<trkpt lat="19700101" lon="000000"><ele></ele><time>2014-6-14T19:12:43Z</time></trkpt>
<trkpt lat="19700101" lon="000000"><ele></ele><time>2014-6-14T19:12:46Z</time></trkpt>
<trkpt lat="19700101" lon="000000"><ele></ele><time>2014-6-14T19:12:49Z</time></trkpt>
<trkpt lat="19700101" lon="000000"><ele></ele><time>2014-6-14T19:12:52Z</time></trkpt>
<trkpt lat="19700101" lon="000000"><ele></ele><time>2014-6-14T19:12:55Z</time></trkpt>
<trkpt lat="19700101" lon="000000"><ele></ele><time>2014-6-14T19:12:58Z</time></trkpt>
<trkpt lat="19700101" lon="000000"><ele></ele><time>2014-6-14T19:13:1Z</time></trkpt>
<trkpt lat="19700101" lon="000000"><ele></ele><time>2014-6-14T19:13:4Z</time></trkpt>
<trkpt lat="19700101" lon="000000"><ele></ele><time>2014-6-14T19:13:7Z</time></trkpt>
<trkpt lat="19700101" lon="000000"><ele></ele><time>2014-6-14T19:13:10Z</time></trkpt>
<trkpt lat="19700101" lon="000000"><ele></ele><time>2014-6-14T19:13:13Z</time></trkpt>
<trkpt lat="19700101" lon="000000"><ele></ele><time>2014-6-14T19:13:16Z</time></trkpt>
<trkpt lat="19700101" lon="000000"><ele></ele><time>2014-6-14T19:13:19Z</time></trkpt>
<trkpt lat="19700101" lon="000000"><ele></ele><time>2014-6-14T19:13:22Z</time></trkpt>
<trkpt lat="19700101" lon="000000"><ele></ele><time>2014-6-14T19:13:25Z</time></trkpt>
<trkpt lat="19700101" lon="000000"><ele></ele><time>2014-6-14T19:13:28Z</time></trkpt>
<trkpt lat="19700101" lon="000000"><ele></ele><time>2014-6-14T19:13:31Z</time></trkpt>
<trkpt lat="19700101" lon="000000"><ele></ele><time>2014-6-14T19:13:34Z</time></trkpt>
<trkpt lat="19700101" lon="000000"><ele></ele><time>2014-6-14T19:13:37Z</time></trkpt>
<trkpt lat="19700101" lon="000000"><ele></ele><time>2014-6-14T19:13:40Z</time></trkpt>
<trkpt lat="19700101" lon="000000"><ele></ele><time>2014-6-14T19:13:43Z</time></trkpt>
<trkpt lat="19700101" lon="000000"><ele></ele><time>2014-6-14T19:13:46Z</time></trkpt>
<trkpt lat="19700101" lon="000000"><ele></ele><time>2014-6-14T19:13:49Z</time></trkpt>
<trkpt lat="19700101" lon="000000"><ele></ele><time>2014-6-14T19:13:52Z</time></trkpt>
<trkpt lat="19700101" lon="000000"><ele></ele><time>2014-6-14T19:13:55Z</time></trkpt>
<trkpt lat="19700101" lon="000000"><ele></ele><time>2014-6-14T19:13:58Z</time></trkpt>
<trkpt lat="19700101" lon="000000"><ele></ele><time>2014-6-14T19:14:1Z</time></trkpt>
<trkpt lat="19700101" lon="000000"><ele></ele><time>2014-6-14T19:14:4Z</time></trkpt>
<trkpt lat="19700101" lon="000000"><ele></ele><time>2014-6-14T19:14:7Z</time></trkpt>
<trkpt lat="19700101" lon="000000"><ele></ele><time>2014-6-14T19:14:10Z</time></trkpt>
<trkpt lat="19700101" lon="000000"><ele></ele><time>2014-6-14T19:14:13Z</time></trkpt>
<trkpt lat="19700101" lon="000000"><ele></ele><time>2014-6-14T19:14:16Z</time></trkpt>
<trkpt lat="19700101" lon="000000"><ele></ele><time>2014-6-14T19:14:19Z</time></trkpt>
<trkpt lat="19700101" lon="000000"><ele></ele><time>2014-6-14T19:14:22Z</time></trkpt>
<trkpt lat="19700101" lon="000000"><ele></ele><time>2014-6-14T19:14:25Z</time></trkpt>
<trkpt lat="19700101" lon="000000"><ele></ele><time>2014-6-14T19:14:28Z</time></trkpt>
<trkpt lat="19700101" lon="000000"><ele></ele><time>2014-6-14T19:14:31Z</time></trkpt>
<trkpt lat="19700101" lon="000000"><ele></ele><time>2014-6-14T19:14:34Z</time></trkpt>
<trkpt lat="19700101" lon="000000"><ele></ele><time>2014-6-14T19:14:37Z</time></trkpt>
<trkpt lat="19700101" lon="000000"><ele></ele><time>2014-6-14T19:14:40Z</time></trkpt>
<trkpt lat="19700101" lon="000000"><ele></ele><time>2014-6-14T19:14:43Z</time></trkpt>
<trkpt lat="19700101" lon="000000"><ele></ele><time>2014-6-14T19:14:46Z</time></trkpt>
<trkpt lat="19700101" lon="000000"><ele></ele><time>2014-6-14T19:14:49Z</time></trkpt>
<trkpt lat="19700101" lon="000000"><ele></ele><time>2014-6-14T19:14:52Z</time></trkpt>
<trkpt lat="19700101" lon="000000"><ele></ele><time>2014-6-14T19:14:55Z</time></trkpt>
<trkpt lat="19700101" lon="000000"><ele></ele><time>2014-6-14T19:14:58Z</time></trkpt>
<trkpt lat="19700101" lon="000000"><ele></ele><time>2014-6-14T19:15:1Z</time></trkpt>
<trkpt lat="19700101" lon="000000"><ele></ele><time>2014-6-14T19:15:4Z</time></trkpt>
<trkpt lat="19700101" lon="000000"><ele></ele><time>2014-6-14T19:15:7Z</time></trkpt>
<trkpt lat="19700101" lon="000000"><ele></ele><time>2014-6-14T19:15:10Z</time></trkpt>
<trkpt lat="19700101" lon="000000"><ele></ele><time>2014-6-14T19:15:13Z</time></trkpt>
<trkpt lat="19700101" lon="000000"><ele></ele><time>2014-6-14T19:15:16Z</time></trkpt>
<trkpt lat="19700101" lon="000000"><ele></ele><time>2014-6-14T19:15:19Z</time></trkpt>
<trkpt lat="19700101" lon="000000"><ele></ele><time>2014-6-14T19:15:22Z</time></trkpt>
<trkpt lat="19700101" lon="000000"><ele></ele><time>2014-6-14T19:15:25Z</time></trkpt>
<trkpt lat="19700101" lon="000000"><ele></ele><time>2014-6-14T19:15:28Z</time></trkpt>
<trkpt lat="19700101" lon="000000"><ele></ele><time>2014-6-14T19:15:31Z</time></trkpt>
<trkpt lat="19700101" lon="000000"><ele></ele><time>2014-6-14T19:15:34Z</time></trkpt>
<trkpt lat="19700101" lon="000000"><ele></ele><time>2014-6-14T19:15:37Z</time></trkpt>
<trkpt lat="19700101" lon="000000"><ele></ele><time>2014-6-14T19:15:40Z</time></trkpt>
<trkpt lat="19700101" lon="000000"><ele></ele><time>2014-6-14T19:15:43Z</time></trkpt>
<trkpt lat="19700101" lon="000000"><ele></ele><time>2014-6-14T19:15:46Z</time></trkpt>
<trkpt lat="19700101" lon="000000"><ele></ele><time>2014-6-14T19:15:49Z</time></trkpt>
<trkpt lat="19700101" lon="000000"><ele></ele><time>2014-6-14T19:15:52Z</time></trkpt>
<trkpt lat="19700101" lon="000000"><ele></ele><time>2014-6-14T19:15:55Z</time></trkpt>
<trkpt lat="19700101" lon="000000"><ele></ele><time>2014-6-14T19:15:58Z</time></trkpt>
<trkpt lat="19700101" lon="000000"><ele></ele><time>2014-6-14T19:16:1Z</time></trkpt>
<trkpt lat="19700101" lon="000000"><ele></ele><time>2014-6-14T19:16:4Z</time></trkpt>
<trkpt lat="19700101" lon="000000"><ele></ele><time>2014-6-14T19:16:7Z</time></trkpt>
<trkpt lat="19700101" lon="000000"><ele></ele><time>2014-6-14T19:16:10Z</time></trkpt>
<trkpt lat="19700101" lon="000000"><ele></ele><time>2014-6-14T19:16:13Z</time></trkpt>
<trkpt lat="19700101" lon="000000"><ele></ele><time>2014-6-14T19:16:16Z</time></trkpt>
<trkpt lat="19700101" lon="000000"><ele></ele><time>2014-6-14T19:16:19Z</time></trkpt>
<trkpt lat="19700101" lon="000000"><ele></ele><time>2014-6-14T19:16:22Z</time></trkpt>
<trkpt lat="19700101" lon="000000"><ele></ele><time>2014-6-14T19:16:25Z</time></trkpt>
<trkpt lat="19700101" lon="000000"><ele></ele><time>2014-6-14T19:16:28Z</time></trkpt>
<trkpt lat="19700101" lon="000000"><ele></ele><time>2014-6-14T19:16:31Z</time></trkpt>
<trkpt lat="19700101" lon="000000"><ele></ele><time>2014-6-14T19:16:34Z</time></trkpt>
<trkpt lat="19700101" lon="000000"><ele></ele><time>2014-6-14T19:16:37Z</time></trkpt>
<trkpt lat="19700101" lon="000000"><ele></ele><time>2014-6-14T19:16:40Z</time></trkpt>
<trkpt lat="19700101" lon="000000"><ele></ele><time>2014-6-14T19:16:43Z</time></trkpt>
<trkpt lat="19700101" lon="000000"><ele></ele><time>2014-6-14T19:16:46Z</time></trkpt>
<trkpt lat="19700101" lon="000000"><ele></ele><time>2014-6-14T19:16:49Z</time></trkpt>
<trkpt lat="19700101" lon="000000"><ele></ele><time>2014-6-14T19:16:52Z</time></trkpt>
<trkpt lat="19700101" lon="000000"><ele></ele><time>2014-6-14T19:16:55Z</time></trkpt>
<trkpt lat="19700101" lon="000000"><ele></ele><time>2014-6-14T19:16:58Z</time></trkpt>
<trkpt lat="19700101" lon="000000"><ele></ele><time>2014-6-14T19:17:1Z</time></trkpt>
<trkpt lat="19700101" lon="000000"><ele></ele><time>2014-6-14T19:17:4Z</time></trkpt>
<trkpt lat="19700101" lon="000000"><ele></ele><time>2014-6-14T19:17:7Z</time></trkpt>
<trkpt lat="19700101" lon="000000"><ele></ele><time>2014-6-14T19:17:10Z</time></trkpt>
<trkpt lat="19700101" lon="000000"><ele></ele><time>2014-6-14T19:17:13Z</time></trkpt>
<trkpt lat="19700101" lon="000000"><ele></ele><time>2014-6-14T19:17:16Z</time></trkpt>
<trkpt lat="19700101" lon="000000"><ele></ele><time>2014-6-14T19:17:19Z</time></trkpt>
<trkpt lat="19700101" lon="000000"><ele></ele><time>2014-6-14T19:17:22Z</time></trkpt>
<trkpt lat="19700101" lon="000000"><ele></ele><time>2014-6-14T19:17:25Z</time></trkpt>
<trkpt lat="19700101" lon="000000"><ele></ele><time>2014-6-14T19:17:28Z</time></trkpt>
<trkpt lat="19700101" lon="000000"><ele></ele><time>2014-6-14T19:17:31Z</time></trkpt>
<trkpt lat="19700101" lon="000000"><ele></ele><time>2014-6-14T19:17:34Z</time></trkpt>
<trkpt lat="19700101" lon="000000"><ele></ele><time>2014-6-14T19:17:37Z</time></trkpt>
<trkpt lat="19700101" lon="000000"><ele></ele><time>2014-6-14T19:17:40Z</time></trkpt>
<trkpt lat="19700101" lon="000000"><ele></ele><time>2014-6-14T19:17:43Z</time></trkpt>
<trkpt lat="19700101" lon="000000"><ele></ele><time>2014-6-14T19:17:46Z</time></trkpt>
<trkpt lat="19700101" lon="000000"><ele></ele><time>2014-6-14T19:17:49Z</time></trkpt>
<trkpt lat="19700101" lon="000000"><ele></ele><time>2014-6-14T19:17:52Z</time></trkpt>
<trkpt lat="19700101" lon="000000"><ele></ele><time>2014-6-14T19:17:55Z</time></trkpt>
<trkpt lat="19700101" lon="000000"><ele></ele><time>2014-6-14T19:17:58Z</time></trkpt>
<trkpt lat="19700101" lon="000000"><ele></ele><time>2014-6-14T19:18:1Z</time></trkpt>
<trkpt lat="19700101" lon="000000"><ele></ele><time>2014-6-14T19:18:4Z</time></trkpt>
<trkpt lat="19700101" lon="000000"><ele></ele><time>2014-6-14T19:18:7Z</time></trkpt>
<trkpt lat="19700101" lon="000000"><ele></ele><time>2014-6-14T19:18:10Z</time></trkpt>
<trkpt lat="19700101" lon="000000"><ele></ele><time>2014-6-14T19:18:13Z</time></trkpt>
<trkpt lat="19700101" lon="000000"><ele></ele><time>2014-6-14T19:18:16Z</time></trkpt>
<trkpt lat="19700101" lon="000000"><ele></ele><time>2014-6-14T19:18:19Z</time></trkpt>
<trkpt lat="19700101" lon="000000"><ele></ele><time>2014-6-14T19:18:22Z</time></trkpt>
<trkpt lat="19700101" lon="000000"><ele></ele><time>2014-6-14T19:18:25Z</time></trkpt>
<trkpt lat="19700101" lon="000000"><ele></ele><time>2014-6-14T19:18:28Z</time></trkpt>
<trkpt lat="19700101" lon="000000"><ele></ele><time>2014-6-14T19:18:31Z</time></trkpt>
<trkpt lat="19700101" lon="000000"><ele></ele><time>2014-6-14T19:18:34Z</time></trkpt>
<trkpt lat="19700101" lon="000000"><ele></ele><time>2014-6-14T19:18:37Z</time></trkpt>
<trkpt lat="19700101" lon="000000"><ele></ele><time>2014-6-14T19:18:40Z</time></trkpt>
<trkpt lat="19700101" lon="000000"><ele></ele><time>2014-6-14T19:18:43Z</time></trkpt>
<trkpt lat="19700101" lon="000000"><ele></ele><time>2014-6-14T19:18:46Z</time></trkpt>
<trkpt lat="19700101" lon="000000"><ele></ele><time>2014-6-14T19:18:49Z</time></trkpt>
<trkpt lat="19700101" lon="000000"><ele></ele><time>2014-6-14T19:18:52Z</time></trkpt>
<trkpt lat="19700101" lon="000000"><ele></ele><time>2014-6-14T19:18:55Z</time></trkpt>
<trkpt lat="19700101" lon="000000"><ele></ele><time>2014-6-14T19:18:58Z</time></trkpt>
<trkpt lat="19700101" lon="000000"><ele></ele><time>2014-6-14T19:19:1Z</time></trkpt>
<trkpt lat="19700101" lon="000000"><ele></ele><time>2014-6-14T19:19:4Z</time></trkpt>
<trkpt lat="19700101" lon="000000"><ele></ele><time>2014-6-14T19:19:7Z</time></trkpt>
<trkpt lat="19700101" lon="000000"><ele></ele><time>2014-6-14T19:19:10Z</time></trkpt>
<trkpt lat="19700101" lon="000000"><ele></ele><time>2014-6-14T19:19:13Z</time></trkpt>
<trkpt lat="19700101" lon="000000"><ele></ele><time>2014-6-14T19:19:16Z</time></trkpt>
<trkpt lat="19700101" lon="000000"><ele></ele><time>2014-6-14T19:19:19Z</time></trkpt>
<trkpt lat="19700101" lon="000000"><ele></ele><time>2014-6-14T19:19:22Z</time></trkpt>
<trkpt lat="19700101" lon="000000"><ele></ele><time>2014-6-14T19:19:25Z</time></trkpt>
<trkpt lat="19700101" lon="000000"><ele></ele><time>2014-6-14T19:19:28Z</time></trkpt>
<trkpt lat="19700101" lon="000000"><ele></ele><time>2014-6-14T19:19:31Z</time></trkpt>
<trkpt lat="19700101" lon="000000"><ele></ele><time>2014-6-14T19:19:34Z</time></trkpt>
<trkpt lat="19700101" lon="000000"><ele></ele><time>2014-6-14T19:19:37Z</time></trkpt>
<trkpt lat="19700101" lon="000000"><ele></ele><time>2014-6-14T19:19:40Z</time></trkpt>
<trkpt lat="19700101" lon="000000"><ele></ele><time>2014-6-14T19:19:43Z</time></trkpt>
<trkpt lat="19700101" lon="000000"><ele></ele><time>2014-6-14T19:19:46Z</time></trkpt>
<trkpt lat="19700101" lon="000000"><ele></ele><time>2014-6-14T19:19:49Z</time></trkpt>
<trkpt lat="19700101" lon="000000"><ele></ele><time>2014-6-14T19:19:52Z</time></trkpt>
<trkpt lat="19700101" lon="000000"><ele></ele><time>2014-6-14T19:19:55Z</time></trkpt>
<trkpt lat="19700101" lon="000000"><ele></ele><time>2014-6-14T19:19:58Z</time></trkpt>
<trkpt lat="19700101" lon="000000"><ele></ele><time>2014-6-14T19:20:1Z</time></trkpt>
<trkpt lat="19700101" lon="000000"><ele></ele><time>2014-6-14T19:20:4Z</time></trkpt>
<trkpt lat="19700101" lon="000000"><ele></ele><time>2014-6-14T19:20:7Z</time></trkpt>
<trkpt lat="19700101" lon="000000"><ele></ele><time>2014-6-14T19:20:10Z</time></trkpt>
<trkpt lat="19700101" lon="000000"><ele></ele><time>2014-6-14T19:20:13Z</time></trkpt>
<trkpt lat="19700101" lon="000000"><ele></ele><time>2014-6-14T19:20:16Z</time></trkpt>
<trkpt lat="19700101" lon="000000"><ele></ele><time>2014-6-14T19:20:19Z</time></trkpt>
<trkpt lat="19700101" lon="000000"><ele></ele><time>2014-6-14T19:20:22Z</time></trkpt>
<trkpt lat="19700101" lon="000000"><ele></ele><time>2014-6-14T19:20:25Z</time></trkpt>
<trkpt lat="19700101" lon="000000"><ele></ele><time>2014-6-14T19:20:28Z</time></trkpt>
<trkpt lat="19700101" lon="000000"><ele></ele><time>2014-6-14T19:20:31Z</time></trkpt>
<trkpt lat="19700101" lon="000000"><ele></ele><time>2014-6-14T19:20:34Z</time></trkpt>
<trkpt lat="19700101" lon="000000"><ele></ele><time>2014-6-14T19:20:37Z</time></trkpt>
<trkpt lat="19700101" lon="000000"><ele></ele><time>2014-6-14T19:20:40Z</time></trkpt>
<trkpt lat="19700101" lon="000000"><ele></ele><time>2014-6-14T19:20:43Z</time></trkpt>
<trkpt lat="19700101" lon="000000"><ele></ele><time>2014-6-14T19:20:46Z</time></trkpt>
<trkpt lat="19700101" lon="000000"><ele></ele><time>2014-6-14T19:20:49Z</time></trkpt>
<trkpt lat="19700101" lon="000000"><ele></ele><time>2014-6-14T19:20:52Z</time></trkpt>
<trkpt lat="19700101" lon="000000"><ele></ele><time>2014-6-14T19:20:55Z</time></trkpt>
<trkpt lat="19700101" lon="000000"><ele></ele><time>2014-6-14T19:20:58Z</time></trkpt>
<trkpt lat="19700101" lon="000000"><ele></ele><time>2014-6-14T19:21:1Z</time></trkpt>
<trkpt lat="19700101" lon="000000"><ele></ele><time>2014-6-14T19:21:4Z</time></trkpt>
<trkpt lat="19700101" lon="000000"><ele></ele><time>2014-6-14T19:21:7Z</time></trkpt>
<trkpt lat="19700101" lon="000000"><ele></ele><time>2014-6-14T19:21:10Z</time></trkpt>
<trkpt lat="19700101" lon="000000"><ele></ele><time>2014-6-14T19:21:13Z</time></trkpt>
<trkpt lat="19700101" lon="000000"><ele></ele><time>2014-6-14T19:21:16Z</time></trkpt>
<trkpt lat="19700101" lon="000000"><ele></ele><time>2014-6-14T19:21:19Z</time></trkpt>
<trkpt lat="19700101" lon="000000"><ele></ele><time>2014-6-14T19:21:22Z</time></trkpt>
<trkpt lat="19700101" lon="000000"><ele></ele><time>2014-6-14T19:21:25Z</time></trkpt>
<trkpt lat="19700101" lon="000000"><ele></ele><time>2014-6-14T19:21:28Z</time></trkpt>
<trkpt lat="19700101" lon="000000"><ele></ele><time>2014-6-14T19:21:31Z</time></trkpt>
<trkpt lat="19700101" lon="000000"><ele></ele><time>2014-6-14T19:21:34Z</time></trkpt>
<trkpt lat="19700101" lon="000000"><ele></ele><time>2014-6-14T19:21:37Z</time></trkpt>
<trkpt lat="19700101" lon="000000"><ele></ele><time>2014-6-14T19:21:40Z</time></trkpt>
<trkpt lat="19700101" lon="000000"><ele></ele><time>2014-6-14T19:21:43Z</time></trkpt>
<trkpt lat="19700101" lon="000000"><ele></ele><time>2014-6-14T19:21:46Z</time></trkpt>
<trkpt lat="19700101" lon="000000"><ele></ele><time>2014-6-14T19:21:49Z</time></trkpt>
<trkpt lat="19700101" lon="000000"><ele></ele><time>2014-6-14T19:21:52Z</time></trkpt>
<trkpt lat="19700101" lon="000000"><ele></ele><time>2014-6-14T19:21:55Z</time></trkpt>
<trkpt lat="19700101" lon="000000"><ele></ele><time>2014-6-14T19:21:58Z</time></trkpt>
<trkpt lat="19700101" lon="000000"><ele></ele><time>2014-6-14T19:22:1Z</time></trkpt>
<trkpt lat="19700101" lon="000000"><ele></ele><time>2014-6-14T19:22:4Z</time></trkpt>
<trkpt lat="19700101" lon="000000"><ele></ele><time>2014-6-14T19:22:7Z</time></trkpt>
<trkpt lat="19700101" lon="000000"><ele></ele><time>2014-6-14T19:22:10Z</time></trkpt>
<trkpt lat="19700101" lon="000000"><ele></ele><time>2014-6-14T19:22:13Z</time></trkpt>
<trkpt lat="19700101" lon="000000"><ele></ele><time>2014-6-14T19:22:16Z</time></trkpt>
<trkpt lat="19700101" lon="000000"><ele></ele><time>2014-6-14T19:22:19Z</time></trkpt>
<trkpt lat="19700101" lon="000000"><ele></ele><time>2014-6-14T19:22:22Z</time></trkpt>
<trkpt lat="19700101" lon="000000"><ele></ele><time>2014-6-14T19:22:25Z</time></trkpt>
<trkpt lat="19700101" lon="000000"><ele></ele><time>2014-6-14T19:22:28Z</time></trkpt>
<trkpt lat="19700101" lon="000000"><ele></ele><time>2014-6-14T19:22:31Z</time></trkpt>
<trkpt lat="19700101" lon="000000"><ele></ele><time>2014-6-14T19:22:34Z</time></trkpt>
<trkpt lat="19700101" lon="000000"><ele></ele><time>2014-6-14T19:22:37Z</time></trkpt>
<trkpt lat="19700101" lon="000000"><ele></ele><time>2014-6-14T19:22:40Z</time></trkpt>
<trkpt lat="19700101" lon="000000"><ele></ele><time>2014-6-14T19:22:43Z</time></trkpt>
<trkpt lat="19700101" lon="000000"><ele></ele><time>2014-6-14T19:22:46Z</time></trkpt>
<trkpt lat="19700101" lon="000000"><ele></ele><time>2014-6-14T19:22:49Z</time></trkpt>
<trkpt lat="19700101" lon="000000"><ele></ele><time>2014-6-14T19:22:52Z</time></trkpt>
<trkpt lat="19700101" lon="000000"><ele></ele><time>2014-6-14T19:22:55Z</time></trkpt>
<trkpt lat="19700101" lon="000000"><ele></ele><time>2014-6-14T19:22:58Z</time></trkpt>
<trkpt lat="19700101" lon="000000"><ele></ele><time>2014-6-14T19:23:1Z</time></trkpt>
<trkpt lat="19700101" lon="000000"><ele></ele><time>2014-6-14T19:23:4Z</time></trkpt>
<trkpt lat="19700101" lon="000000"><ele></ele><time>2014-6-14T19:23:7Z</time></trkpt>
<trkpt lat="19700101" lon="000000"><ele></ele><time>2014-6-14T19:23:10Z</time></trkpt>
<trkpt lat="19700101" lon="000000"><ele></ele><time>2014-6-14T19:23:13Z</time></trkpt>
<trkpt lat="19700101" lon="000000"><ele></ele><time>2014-6-14T19:23:16Z</time></trkpt>
<trkpt lat="19700101" lon="000000"><ele></ele><time>2014-6-14T19:23:19Z</time></trkpt>
<trkpt lat="19700101" lon="000000"><ele></ele><time>2014-6-14T19:23:22Z</time></trkpt>
<trkpt lat="19700101" lon="000000"><ele></ele><time>2014-6-14T19:23:25Z</time></trkpt>
<trkpt lat="19700101" lon="000000"><ele></ele><time>2014-6-14T19:23:28Z</time></trkpt>
<trkpt lat="19700101" lon="000000"><ele></ele><time>2014-6-14T19:23:31Z</time></trkpt>
<trkpt lat="19700101" lon="000000"><ele></ele><time>2014-6-14T19:23:34Z</time></trkpt>
<trkpt lat="19700101" lon="000000"><ele></ele><time>2014-6-14T19:23:37Z</time></trkpt>
<trkpt lat="19700101" lon="000000"><ele></ele><time>2014-6-14T19:23:40Z</time></trkpt>
<trkpt lat="19700101" lon="000000"><ele></ele><time>2014-6-14T19:23:43Z</time></trkpt>
<trkpt lat="19700101" lon="000000"><ele></ele><time>2014-6-14T19:23:46Z</time></trkpt>
<trkpt lat="19700101" lon="000000"><ele></ele><time>2014-6-14T19:23:49Z</time></trkpt>
<trkpt lat="19700101" lon="000000"><ele></ele><time>2014-6-14T19:23:52Z</time></trkpt>
<trkpt lat="19700101" lon="000000"><ele></ele><time>2014-6-14T19:23:55Z</time></trkpt>
<trkpt lat="19700101" lon="000000"><ele></ele><time>2014-6-14T19:23:58Z</time></trkpt>
<trkpt lat="19700101" lon="000000"><ele></ele><time>2014-6-14T19:24:1Z</time></trkpt>
<trkpt lat="19700101" lon="000000"><ele></ele><time>2014-6-14T19:24:4Z</time></trkpt>
<trkpt lat="19700101" lon="000000"><ele></ele><time>2014-6-14T19:24:7Z</time></trkpt>
<trkpt lat="19700101" lon="000000"><ele></ele><time>2014-6-14T19:24:10Z</time></trkpt>
<trkpt lat="19700101" lon="000000"><ele></ele><time>2014-6-14T19:24:13Z</time></trkpt>
<trkpt lat="19700101" lon="000000"><ele></ele><time>2014-6-14T19:24:16Z</time></trkpt>
<trkpt lat="19700101" lon="000000"><ele></ele><time>2014-6-14T19:24:19Z</time></trkpt>
<trkpt lat="19700101" lon="000000"><ele></ele><time>2014-6-14T19:24:22Z</time></trkpt>
<trkpt lat="19700101" lon="000000"><ele></ele><time>2014-6-14T19:24:25Z</time></trkpt>
<trkpt lat="19700101" lon="000000"><ele></ele><time>2014-6-14T19:24:28Z</time></trkpt>
<trkpt lat="19700101" lon="000000"><ele></ele><time>2014-6-14T19:24:31Z</time></trkpt>
<trkpt lat="19700101" lon="000000"><ele></ele><time>2014-6-14T19:24:34Z</time></trkpt>
<trkpt lat="19700101" lon="000000"><ele></ele><time>2014-6-14T19:24:37Z</time></trkpt>
<trkpt lat="19700101" lon="000000"><ele></ele><time>2014-6-14T19:24:40Z</time></trkpt>
<trkpt lat="19700101" lon="000000"><ele></ele><time>2014-6-14T19:24:43Z</time></trkpt>
<trkpt lat="19700101" lon="000000"><ele></ele><time>2014-6-14T19:24:46Z</time></trkpt>
<trkpt lat="19700101" lon="000000"><ele></ele><time>2014-6-14T19:24:49Z</time></trkpt>
<trkpt lat="19700101" lon="000000"><ele></ele><time>2014-6-14T19:24:52Z</time></trkpt>
<trkpt lat="19700101" lon="000000"><ele></ele><time>2014-6-14T19:24:55Z</time></trkpt>
<trkpt lat="19700101" lon="000000"><ele></ele><time>2014-6-14T19:24:58Z</time></trkpt>
<trkpt lat="19700101" lon="000000"><ele></ele><time>2014-6-14T19:25:1Z</time></trkpt>
<trkpt lat="19700101" lon="000000"><ele></ele><time>2014-6-14T19:25:4Z</time></trkpt>
<trkpt lat="19700101" lon="000000"><ele></ele><time>2014-6-14T19:25:7Z</time></trkpt>
<trkpt lat="19700101" lon="000000"><ele></ele><time>2014-6-14T19:25:10Z</time></trkpt>
<trkpt lat="19700101" lon="000000"><ele></ele><time>2014-6-14T19:25:13Z</time></trkpt>
<trkpt lat="19700101" lon="000000"><ele></ele><time>2014-6-14T19:25:16Z</time></trkpt>
<trkpt lat="19700101" lon="000000"><ele></ele><time>2014-6-14T19:25:19Z</time></trkpt>
<trkpt lat="19700101" lon="000000"><ele></ele><time>2014-6-14T19:25:22Z</time></trkpt>
<trkpt lat="19700101" lon="000000"><ele></ele><time>2014-6-14T19:25:25Z</time></trkpt>
<trkpt lat="19700101" lon="000000"><ele></ele><time>2014-6-14T19:25:28Z</time></trkpt>
<trkpt lat="19700101" lon="000000"><ele></ele><time>2014-6-14T19:25:31Z</time></trkpt>
<trkpt lat="19700101" lon="000000"><ele></ele><time>2014-6-14T19:25:34Z</time></trkpt>
<trkpt lat="19700101" lon="000000"><ele></ele><time>2014-6-14T19:25:37Z</time></trkpt>
<trkpt lat="19700101" lon="000000"><ele></ele><time>2014-6-14T19:25:40Z</time></trkpt>
<trkpt lat="19700101" lon="000000"><ele></ele><time>2014-6-14T19:25:43Z</time></trkpt>
<trkpt lat="19700101" lon="000000"><ele></ele><time>2014-6-14T19:25:46Z</time></trkpt>
<trkpt lat="19700101" lon="000000"><ele></ele><time>2014-6-14T19:25:49Z</time></trkpt>
<trkpt lat="19700101" lon="000000"><ele></ele><time>2014-6-14T19:25:52Z</time></trkpt>
<trkpt lat="19700101" lon="000000"><ele></ele><time>2014-6-14T19:25:55Z</time></trkpt>
<trkpt lat="19700101" lon="000000"><ele></ele><time>2014-6-14T19:25:58Z</time></trkpt>
<trkpt lat="19700101" lon="000000"><ele></ele><time>2014-6-14T19:26:1Z</time></trkpt>
<trkpt lat="19700101" lon="000000"><ele></ele><time>2014-6-14T19:26:4Z</time></trkpt>
<trkpt lat="19700101" lon="000000"><ele></ele><time>2014-6-14T19:26:7Z</time></trkpt>
<trkpt lat="19700101" lon="000000"><ele></ele><time>2014-6-14T19:26:10Z</time></trkpt>
<trkpt lat="19700101" lon="000000"><ele></ele><time>2014-6-14T19:26:13Z</time></trkpt>
<trkpt lat="19700101" lon="000000"><ele></ele><time>2014-6-14T19:26:16Z</time></trkpt>
<trkpt lat="19700101" lon="000000"><ele></ele><time>2014-6-14T19:26:19Z</time></trkpt>
<trkpt lat="19700101" lon="000000"><ele></ele><time>2014-6-14T19:26:22Z</time></trkpt>
<trkpt lat="19700101" lon="000000"><ele></ele><time>2014-6-14T19:26:25Z</time></trkpt>
<trkpt lat="19700101" lon="000000"><ele></ele><time>2014-6-14T19:26:28Z</time></trkpt>
<trkpt lat="19700101" lon="000000"><ele></ele><time>2014-6-14T19:26:31Z</time></trkpt>
<trkpt lat="19700101" lon="000000"><ele></ele><time>2014-6-14T19:26:34Z</time></trkpt>
<trkpt lat="19700101" lon="000000"><ele></ele><time>2014-6-14T19:26:37Z</time></trkpt>
<trkpt lat="19700101" lon="000000"><ele></ele><time>2014-6-14T19:26:40Z</time></trkpt>
<trkpt lat="19700101" lon="000000"><ele></ele><time>2014-6-14T19:26:43Z</time></trkpt>
<trkpt lat="19700101" lon="000000"><ele></ele><time>2014-6-14T19:26:46Z</time></trkpt>
<trkpt lat="19700101" lon="000000"><ele></ele><time>2014-6-14T19:26:49Z</time></trkpt>
<trkpt lat="19700101" lon="000000"><ele></ele><time>2014-6-14T19:26:52Z</time></trkpt>
<trkpt lat="19700101" lon="000000"><ele></ele><time>2014-6-14T19:26:55Z</time></trkpt>
<trkpt lat="19700101" lon="000000"><ele></ele><time>2014-6-14T19:26:58Z</time></trkpt>
<trkpt lat="19700101" lon="000000"><ele></ele><time>2014-6-14T19:27:1Z</time></trkpt>
<trkpt lat="19700101" lon="000000"><ele></ele><time>2014-6-14T19:27:4Z</time></trkpt>
<trkpt lat="19700101" lon="000000"><ele></ele><time>2014-6-14T19:27:7Z</time></trkpt>
<trkpt lat="19700101" lon="000000"><ele></ele><time>2014-6-14T19:27:10Z</time></trkpt>
<trkpt lat="19700101" lon="000000"><ele></ele><time>2014-6-14T19:27:13Z</time></trkpt>
<trkpt lat="19700101" lon="000000"><ele></ele><time>2014-6-14T19:27:16Z</time></trkpt>
<trkpt lat="19700101" lon="000000"><ele></ele><time>2014-6-14T19:27:19Z</time></trkpt>
<trkpt lat="19700101" lon="000000"><ele></ele><time>2014-6-14T19:27:22Z</time></trkpt>
<trkpt lat="19700101" lon="000000"><ele></ele><time>2014-6-14T19:27:25Z</time></trkpt>
<trkpt lat="19700101" lon="000000"><ele></ele><time>2014-6-14T19:27:28Z</time></trkpt>
<trkpt lat="19700101" lon="000000"><ele></ele><time>2014-6-14T19:27:31Z</time></trkpt>
<trkpt lat="19700101" lon="000000"><ele></ele><time>2014-6-14T19:27:34Z</time></trkpt>
<trkpt lat="19700101" lon="000000"><ele></ele><time>2014-6-14T19:27:37Z</time></trkpt>
<trkpt lat="19700101" lon="000000"><ele></ele><time>2014-6-14T19:27:40Z</time></trkpt>
<trkpt lat="19700101" lon="000000"><ele></ele><time>2014-6-14T19:27:43Z</time></trkpt>
<trkpt lat="19700101" lon="000000"><ele></ele><time>2014-6-14T19:27:46Z</time></trkpt>
<trkpt lat="19700101" lon="000000"><ele></ele><time>2014-6-14T19:27:49Z</time></trkpt>
<trkpt lat="19700101" lon="000000"><ele></ele><time>2014-6-14T19:27:52Z</time></trkpt>
<trkpt lat="19700101" lon="000000"><ele></ele><time>2014-6-14T19:27:55Z</time></trkpt>
<trkpt lat="19700101" lon="000000"><ele></ele><time>2014-6-14T19:27:58Z</time></trkpt>
<trkpt lat="19700101" lon="000000"><ele></ele><time>2014-6-14T19:28:1Z</time></trkpt>
<trkpt lat="19700101" lon="000000"><ele></ele><time>2014-6-14T19:28:4Z</time></trkpt>
<trkpt lat="19700101" lon="000000"><ele></ele><time>2014-6-14T19:28:7Z</time></trkpt>
<trkpt lat="19700101" lon="000000"><ele></ele><time>2014-6-14T19:28:10Z</time></trkpt>
<trkpt lat="19700101" lon="000000"><ele></ele><time>2014-6-14T19:28:13Z</time></trkpt>
<trkpt lat="19700101" lon="000000"><ele></ele><time>2014-6-14T19:28:16Z</time></trkpt>
<trkpt lat="19700101" lon="000000"><ele></ele><time>2014-6-14T19:28:19Z</time></trkpt>
<trkpt lat="19700101" lon="000000"><ele></ele><time>2014-6-14T19:28:22Z</time></trkpt>
<trkpt lat="19700101" lon="000000"><ele></ele><time>2014-6-14T19:28:25Z</time></trkpt>
<trkpt lat="19700101" lon="000000"><ele></ele><time>2014-6-14T19:28:28Z</time></trkpt>
<trkpt lat="19700101" lon="000000"><ele></ele><time>2014-6-14T19:28:31Z</time></trkpt>
<trkpt lat="19700101" lon="000000"><ele></ele><time>2014-6-14T19:28:34Z</time></trkpt>
<trkpt lat="19700101" lon="000000"><ele></ele><time>2014-6-14T19:28:37Z</time></trkpt>
<trkpt lat="19700101" lon="000000"><ele></ele><time>2014-6-14T19:28:40Z</time></trkpt>
<trkpt lat="19700101" lon="000000"><ele></ele><time>2014-6-14T19:28:43Z</time></trkpt>
<trkpt lat="19700101" lon="000000"><ele></ele><time>2014-6-14T19:28:46Z</time></trkpt>
<trkpt lat="19700101" lon="000000"><ele></ele><time>2014-6-14T19:28:49Z</time></trkpt>
<trkpt lat="19700101" lon="000000"><ele></ele><time>2014-6-14T19:28:52Z</time></trkpt>
<trkpt lat="19700101" lon="000000"><ele></ele><time>2014-6-14T19:28:55Z</time></trkpt>
<trkpt lat="19700101" lon="000000"><ele></ele><time>2014-6-14T19:28:58Z</time></trkpt>
<trkpt lat="19700101" lon="000000"><ele></ele><time>2014-6-14T19:29:1Z</time></trkpt>
<trkpt lat="19700101" lon="000000"><ele></ele><time>2014-6-14T19:29:4Z</time></trkpt>
<trkpt lat="19700101" lon="000000"><ele></ele><time>2014-6-14T19:29:7Z</time></trkpt>
<trkpt lat="19700101" lon="000000"><ele></ele><time>2014-6-14T19:29:10Z</time></trkpt>
<trkpt lat="19700101" lon="000000"><ele></ele><time>2014-6-14T19:29:13Z</time></trkpt>
<trkpt lat="19700101" lon="000000"><ele></ele><time>2014-6-14T19:29:16Z</time></trkpt>
<trkpt lat="19700101" lon="000000"><ele></ele><time>2014-6-14T19:29:19Z</time></trkpt>
<trkpt lat="19700101" lon="000000"><ele></ele><time>2014-6-14T19:29:22Z</time></trkpt>
<trkpt lat="19700101" lon="000000"><ele></ele><time>2014-6-14T19:29:25Z</time></trkpt>
<trkpt lat="19700101" lon="000000"><ele></ele><time>2014-6-14T19:29:28Z</time></trkpt>
<trkpt lat="19700101" lon="000000"><ele></ele><time>2014-6-14T19:29:31Z</time></trkpt>
<trkpt lat="19700101" lon="000000"><ele></ele><time>2014-6-14T19:29:34Z</time></trkpt>
<trkpt lat="19700101" lon="000000"><ele></ele><time>2014-6-14T19:29:37Z</time></trkpt>
<trkpt lat="19700101" lon="000000"><ele></ele><time>2014-6-14T19:29:40Z</time></trkpt>
<trkpt lat="19700101" lon="000000"><ele></ele><time>2014-6-14T19:29:43Z</time></trkpt>
<trkpt lat="19700101" lon="000000"><ele></ele><time>2014-6-14T19:29:46Z</time></trkpt>
<trkpt lat="19700101" lon="000000"><ele></ele><time>2014-6-14T19:29:49Z</time></trkpt>
<trkpt lat="19700101" lon="000000"><ele></ele><time>2014-6-14T19:29:52Z</time></trkpt>
<trkpt lat="19700101" lon="000000"><ele></ele><time>2014-6-14T19:29:55Z</time></trkpt>
<trkpt lat="19700101" lon="000000"><ele></ele><time>2014-6-14T19:29:58Z</time></trkpt>
<trkpt lat="19700101" lon="000000"><ele></ele><time>2014-6-14T19:30:1Z</time></trkpt>
<trkpt lat="19700101" lon="000000"><ele></ele><time>2014-6-14T19:30:4Z</time></trkpt>
<trkpt lat="19700101" lon="000000"><ele></ele><time>2014-6-14T19:30:7Z</time></trkpt>
<trkpt lat="19700101" lon="000000"><ele></ele><time>2014-6-14T19:30:10Z</time></trkpt>
<trkpt lat="19700101" lon="000000"><ele></ele><time>2014-6-14T19:30:13Z</time></trkpt>
<trkpt lat="19700101" lon="000000"><ele></ele><time>2014-6-14T19:30:16Z</time></trkpt>
<trkpt lat="19700101" lon="000000"><ele></ele><time>2014-6-14T19:30:19Z</time></trkpt>
<trkpt lat="19700101" lon="000000"><ele></ele><time>2014-6-14T19:30:22Z</time></trkpt>
<trkpt lat="19700101" lon="000000"><ele></ele><time>2014-6-14T19:30:25Z</time></trkpt>
<trkpt lat="19700101" lon="000000"><ele></ele><time>2014-6-14T19:30:28Z</time></trkpt>
<trkpt lat="19700101" lon="000000"><ele></ele><time>2014-6-14T19:30:31Z</time></trkpt>
<trkpt lat="19700101" lon="000000"><ele></ele><time>2014-6-14T19:30:34Z</time></trkpt>
<trkpt lat="19700101" lon="000000"><ele></ele><time>2014-6-14T19:30:37Z</time></trkpt>
<trkpt lat="19700101" lon="000000"><ele></ele><time>2014-6-14T19:30:40Z</time></trkpt>
<trkpt lat="19700101" lon="000000"><ele></ele><time>2014-6-14T19:30:43Z</time></trkpt>
<trkpt lat="19700101" lon="000000"><ele></ele><time>2014-6-14T19:30:46Z</time></trkpt>
<trkpt lat="19700101" lon="000000"><ele></ele><time>2014-6-14T19:30:49Z</time></trkpt>
<trkpt lat="19700101" lon="000000"><ele></ele><time>2014-6-14T19:30:52Z</time></trkpt>
<trkpt lat="19700101" lon="000000"><ele></ele><time>2014-6-14T19:30:55Z</time></trkpt>
<trkpt lat="19700101" lon="000000"><ele></ele><time>2014-6-14T19:30:58Z</time></trkpt>
<trkpt lat="19700101" lon="000000"><ele></ele><time>2014-6-14T19:31:1Z</time></trkpt>
<trkpt lat="19700101" lon="000000"><ele></ele><time>2014-6-14T19:31:4Z</time></trkpt>
</trkseg></trk></gpx>